sensor_id;sensor_type;location;lat;lon;timestamp;pressure;altitude;pressure_sealevel;temperature;humidity
28289;BME280;15558;50.874;6.964;2022-11-11T00:01:00;102570.31;;;15.16;61.41
28289;BME280;15558;50.874;6.964;2022-11-11T00:03:26;102565.50;;;15.22;61.01
28289;BME280;15558;50.874;6.964;2022-11-11T00:05:52;102563.53;;;15.17;61.19
28289;BME280;15558;50.874;6.964;2022-11-11T00:08:18;102548.53;;;15.22;61.18
28289;BME280;15558;50.874;6.964;2022-11-11T00:10:44;102544.00;;;15.16;61.60
28289;BME280;15558;50.874;6.964;2022-11-11T00:13:11;102544.28;;;15.09;62.29
28289;BME280;15558;50.874;6.964;2022-11-11T00:15:37;102539.47;;;15.20;61.85
28289;BME280;15558;50.874;6.964;2022-11-11T00:18:04;102550.50;;;15.26;61.37
28289;BME280;15558;50.874;6.964;2022-11-11T00:20:49;102556.19;;;15.07;62.02
28289;BME280;15558;50.874;6.964;2022-11-11T00:23:33;102555.06;;;15.03;62.69
28289;BME280;15558;50.874;6.964;2022-11-11T00:26:19;102562.97;;;15.01;62.42
28289;BME280;15558;50.874;6.964;2022-11-11T00:28:45;102552.22;;;15.07;62.10
28289;BME280;15558;50.874;6.964;2022-11-11T00:31:12;102549.09;;;15.04;61.87
28289;BME280;15558;50.874;6.964;2022-11-11T00:33:38;102562.97;;;15.20;61.90
28289;BME280;15558;50.874;6.964;2022-11-11T00:36:06;102560.69;;;15.07;61.94
28289;BME280;15558;50.874;6.964;2022-11-11T00:38:32;102552.50;;;15.21;61.73
28289;BME280;15558;50.874;6.964;2022-11-11T00:41:20;102559.28;;;15.05;62.18
28289;BME280;15558;50.874;6.964;2022-11-11T00:43:46;102566.63;;;15.11;62.05
28289;BME280;15558;50.874;6.964;2022-11-11T00:46:14;102573.72;;;15.13;61.66
28289;BME280;15558;50.874;6.964;2022-11-11T00:48:59;102582.75;;;15.20;61.33
28289;BME280;15558;50.874;6.964;2022-11-11T00:51:44;102591.84;;;15.17;61.17
28289;BME280;15558;50.874;6.964;2022-11-11T00:54:11;102590.13;;;15.07;60.92
28289;BME280;15558;50.874;6.964;2022-11-11T00:56:38;102592.97;;;15.11;61.38
28289;BME280;15558;50.874;6.964;2022-11-11T00:59:06;102591.56;;;14.94;61.63
28289;BME280;15558;50.874;6.964;2022-11-11T01:01:33;102585.59;;;14.91;61.13
28289;BME280;15558;50.874;6.964;2022-11-11T01:03:59;102583.94;;;14.90;61.76
28289;BME280;15558;50.874;6.964;2022-11-11T01:06:25;102583.91;;;14.95;61.49
28289;BME280;15558;50.874;6.964;2022-11-11T01:08:51;102574.00;;;14.87;61.60
28289;BME280;15558;50.874;6.964;2022-11-11T01:11:20;102572.56;;;15.00;61.36
28289;BME280;15558;50.874;6.964;2022-11-11T01:13:46;102575.41;;;15.00;61.22
28289;BME280;15558;50.874;6.964;2022-11-11T01:16:24;102585.59;;;14.91;61.20
28289;BME280;15558;50.874;6.964;2022-11-11T01:18:51;102580.53;;;14.88;62.01
28289;BME280;15558;50.874;6.964;2022-11-11T01:21:19;102583.31;;;14.98;61.36
28289;BME280;15558;50.874;6.964;2022-11-11T01:23:46;102586.16;;;14.93;61.65
28289;BME280;15558;50.874;6.964;2022-11-11T01:26:21;102598.63;;;14.92;61.79
28289;BME280;15558;50.874;6.964;2022-11-11T01:28:53;102595.78;;;14.97;61.58
28289;BME280;15558;50.874;6.964;2022-11-11T01:31:20;102594.09;;;14.91;61.51
28289;BME280;15558;50.874;6.964;2022-11-11T01:33:46;102600.59;;;14.86;61.59
28289;BME280;15558;50.874;6.964;2022-11-11T01:36:17;102604.84;;;14.84;61.34
28289;BME280;15558;50.874;6.964;2022-11-11T01:38:47;102612.19;;;14.70;61.65
28289;BME280;15558;50.874;6.964;2022-11-11T01:41:16;102597.22;;;14.70;61.32
28289;BME280;15558;50.874;6.964;2022-11-11T01:44:40;102607.06;;;14.52;61.41
28289;BME280;15558;50.874;6.964;2022-11-11T01:46:59;102605.09;;;14.48;61.30
28289;BME280;15558;50.874;6.964;2022-11-11T01:54:53;102609.88;;;14.38;61.33
28289;BME280;15558;50.874;6.964;2022-11-11T02:00:07;102606.22;;;14.32;61.59
28289;BME280;15558;50.874;6.964;2022-11-11T02:02:57;102609.88;;;14.28;61.85
28289;BME280;15558;50.874;6.964;2022-11-11T02:05:24;102609.84;;;14.23;62.48
28289;BME280;15558;50.874;6.964;2022-11-11T02:08:23;102607.59;;;14.25;62.21
28289;BME280;15558;50.874;6.964;2022-11-11T02:11:07;102611.56;;;14.24;62.27
28289;BME280;15558;50.874;6.964;2022-11-11T02:13:37;102609.56;;;14.24;62.07
28289;BME280;15558;50.874;6.964;2022-11-11T02:16:22;102613.50;;;14.23;62.29
28289;BME280;15558;50.874;6.964;2022-11-11T02:18:48;102615.22;;;14.29;62.30
28289;BME280;15558;50.874;6.964;2022-11-11T02:21:24;102608.16;;;14.27;63.05
28289;BME280;15558;50.874;6.964;2022-11-11T02:24:11;102606.78;;;14.34;62.92
28289;BME280;15558;50.874;6.964;2022-11-11T02:26:39;102611.00;;;14.27;63.13
28289;BME280;15558;50.874;6.964;2022-11-11T02:29:12;102607.06;;;14.33;62.82
28289;BME280;15558;50.874;6.964;2022-11-11T02:31:39;102600.25;;;14.34;62.71
28289;BME280;15558;50.874;6.964;2022-11-11T02:34:05;102604.22;;;14.38;62.59
28289;BME280;15558;50.874;6.964;2022-11-11T02:36:31;102604.50;;;14.31;62.99
28289;BME280;15558;50.874;6.964;2022-11-11T02:38:57;102603.94;;;14.24;62.96
28289;BME280;15558;50.874;6.964;2022-11-11T02:41:23;102603.09;;;14.29;62.83
28289;BME280;15558;50.874;6.964;2022-11-11T02:44:08;102604.50;;;14.26;62.28
28289;BME280;15558;50.874;6.964;2022-11-11T02:46:34;102609.00;;;14.17;62.88
28289;BME280;15558;50.874;6.964;2022-11-11T02:49:00;102601.38;;;14.18;62.59
28289;BME280;15558;50.874;6.964;2022-11-11T02:51:26;102604.19;;;14.23;62.78
28289;BME280;15558;50.874;6.964;2022-11-11T02:53:51;102596.84;;;14.12;62.85
28289;BME280;15558;50.874;6.964;2022-11-11T02:56:26;102597.41;;;14.19;62.86
28289;BME280;15558;50.874;6.964;2022-11-11T02:59:11;102599.38;;;14.18;63.37
28289;BME280;15558;50.874;6.964;2022-11-11T03:01:37;102596.59;;;14.28;62.57
28289;BME280;15558;50.874;6.964;2022-11-11T03:04:03;102598.56;;;14.33;62.32
28289;BME280;15558;50.874;6.964;2022-11-11T03:06:29;102593.75;;;14.23;62.32
28289;BME280;15558;50.874;6.964;2022-11-11T03:08:55;102605.59;;;14.25;62.04
28289;BME280;15558;50.874;6.964;2022-11-11T03:11:21;102608.41;;;14.10;61.92
28289;BME280;15558;50.874;6.964;2022-11-11T03:16:28;102602.47;;;14.17;62.01
28289;BME280;15558;50.874;6.964;2022-11-11T03:19:12;102595.16;;;14.21;62.15
28289;BME280;15558;50.874;6.964;2022-11-11T03:21:39;102603.34;;;14.22;62.60
28289;BME280;15558;50.874;6.964;2022-11-11T03:24:06;102603.09;;;14.29;62.65
28289;BME280;15558;50.874;6.964;2022-11-11T03:26:32;102599.69;;;14.32;62.92
28289;BME280;15558;50.874;6.964;2022-11-11T03:28:58;102613.25;;;14.25;62.81
28289;BME280;15558;50.874;6.964;2022-11-11T03:31:23;102627.63;;;14.18;62.76
28289;BME280;15558;50.874;6.964;2022-11-11T03:33:49;102614.34;;;14.19;62.93
28289;BME280;15558;50.874;6.964;2022-11-11T03:36:15;102613.78;;;14.17;62.95
28289;BME280;15558;50.874;6.964;2022-11-11T03:41:35;102616.03;;;14.10;62.98
28289;BME280;15558;50.874;6.964;2022-11-11T03:44:11;102616.59;;;14.07;62.98
28289;BME280;15558;50.874;6.964;2022-11-11T03:46:37;102618.28;;;14.03;62.90
28289;BME280;15558;50.874;6.964;2022-11-11T03:51:39;102609.81;;;14.03;63.17
28289;BME280;15558;50.874;6.964;2022-11-11T03:54:05;102622.81;;;14.09;63.17
28289;BME280;15558;50.874;6.964;2022-11-11T03:56:31;102618.28;;;14.03;62.92
28289;BME280;15558;50.874;6.964;2022-11-11T03:58:57;102609.72;;;13.98;62.95
28289;BME280;15558;50.874;6.964;2022-11-11T04:01:23;102616.00;;;14.00;63.29
28289;BME280;15558;50.874;6.964;2022-11-11T04:04:08;102617.38;;;13.98;63.10
28289;BME280;15558;50.874;6.964;2022-11-11T04:06:52;102618.72;;;13.90;63.50
28289;BME280;15558;50.874;6.964;2022-11-11T04:09:37;102620.72;;;13.90;63.50
28289;BME280;15558;50.874;6.964;2022-11-11T04:12:22;102621.56;;;13.90;63.67
28289;BME280;15558;50.874;6.964;2022-11-11T04:14:48;102613.38;;;13.89;63.37
28289;BME280;15558;50.874;6.964;2022-11-11T04:17:32;102623.84;;;13.93;63.31
28289;BME280;15558;50.874;6.964;2022-11-11T04:19:58;102620.75;;;13.95;63.46
28289;BME280;15558;50.874;6.964;2022-11-11T04:22:43;102613.38;;;13.94;63.57
28289;BME280;15558;50.874;6.964;2022-11-11T04:25:09;102614.56;;;14.02;63.29
28289;BME280;15558;50.874;6.964;2022-11-11T04:27:56;102609.47;;;13.95;62.96
28289;BME280;15558;50.874;6.964;2022-11-11T04:30:42;102617.63;;;13.96;63.10
28289;BME280;15558;50.874;6.964;2022-11-11T04:33:08;102616.84;;;14.01;62.77
28289;BME280;15558;50.874;6.964;2022-11-11T04:35:34;102598.22;;;14.00;62.64
28289;BME280;15558;50.874;6.964;2022-11-11T04:38:00;102608.31;;;13.96;62.23
28289;BME280;15558;50.874;6.964;2022-11-11T04:40:45;102612.81;;;13.87;62.38
28289;BME280;15558;50.874;6.964;2022-11-11T04:43:30;102611.66;;;13.88;62.19
28289;BME280;15558;50.874;6.964;2022-11-11T04:45:59;102608.56;;;13.84;62.30
28289;BME280;15558;50.874;6.964;2022-11-11T04:48:26;102610.56;;;13.89;62.33
28289;BME280;15558;50.874;6.964;2022-11-11T04:50:52;102622.44;;;13.96;62.63
28289;BME280;15558;50.874;6.964;2022-11-11T04:53:18;102622.97;;;13.88;62.98
28289;BME280;15558;50.874;6.964;2022-11-11T04:55:44;102627.19;;;13.80;62.82
28289;BME280;15558;50.874;6.964;2022-11-11T04:58:31;102616.44;;;13.77;63.36
28289;BME280;15558;50.874;6.964;2022-11-11T05:00:58;102633.34;;;13.72;63.22
28289;BME280;15558;50.874;6.964;2022-11-11T05:03:24;102626.88;;;13.72;63.58
28289;BME280;15558;50.874;6.964;2022-11-11T05:05:55;102625.34;;;13.55;63.67
28289;BME280;15558;50.874;6.964;2022-11-11T05:08:45;102630.47;;;13.58;63.67
28289;BME280;15558;50.874;6.964;2022-11-11T05:11:27;102625.91;;;13.57;63.31
28289;BME280;15558;50.874;6.964;2022-11-11T05:13:55;102638.84;;;13.48;63.56
28289;BME280;15558;50.874;6.964;2022-11-11T05:16:46;102643.91;;;13.41;63.86
28289;BME280;15558;50.874;6.964;2022-11-11T05:19:31;102637.13;;;13.47;63.66
28289;BME280;15558;50.874;6.964;2022-11-11T05:22:35;102638.28;;;13.46;63.67
28289;BME280;15558;50.874;6.964;2022-11-11T05:25:02;102634.31;;;13.47;64.04
28289;BME280;15558;50.874;6.964;2022-11-11T05:27:47;102638.03;;;13.52;64.05
28289;BME280;15558;50.874;6.964;2022-11-11T05:30:14;102630.72;;;13.56;64.01
28289;BME280;15558;50.874;6.964;2022-11-11T05:32:41;102630.16;;;13.59;63.85
28289;BME280;15558;50.874;6.964;2022-11-11T05:35:08;102625.91;;;13.57;63.75
28289;BME280;15558;50.874;6.964;2022-11-11T05:37:35;102624.50;;;13.59;63.68
28289;BME280;15558;50.874;6.964;2022-11-11T05:40:01;102622.00;;;13.63;63.21
28289;BME280;15558;50.874;6.964;2022-11-11T05:42:27;102636.69;;;13.60;63.80
28289;BME280;15558;50.874;6.964;2022-11-11T05:44:53;102630.97;;;13.50;63.67
28289;BME280;15558;50.874;6.964;2022-11-11T05:47:19;102626.75;;;13.52;63.68
28289;BME280;15558;50.874;6.964;2022-11-11T05:49:45;102634.38;;;13.52;63.67
28289;BME280;15558;50.874;6.964;2022-11-11T05:52:12;102630.97;;;13.50;64.23
28289;BME280;15558;50.874;6.964;2022-11-11T05:54:41;102641.69;;;13.53;63.98
28289;BME280;15558;50.874;6.964;2022-11-11T05:57:07;102643.09;;;13.50;63.81
28289;BME280;15558;50.874;6.964;2022-11-11T05:59:34;102641.69;;;13.53;63.86
28289;BME280;15558;50.874;6.964;2022-11-11T06:02:00;102652.97;;;13.53;64.36
28289;BME280;15558;50.874;6.964;2022-11-11T06:04:26;102650.22;;;13.58;64.06
28289;BME280;15558;50.874;6.964;2022-11-11T06:06:52;102646.50;;;13.52;64.47
28289;BME280;15558;50.874;6.964;2022-11-11T06:09:18;102659.81;;;13.62;64.25
28289;BME280;15558;50.874;6.964;2022-11-11T06:11:44;102660.59;;;13.47;64.82
28289;BME280;15558;50.874;6.964;2022-11-11T06:14:10;102665.41;;;13.52;64.57
28289;BME280;15558;50.874;6.964;2022-11-11T06:16:36;102662.84;;;13.50;64.72
28289;BME280;15558;50.874;6.964;2022-11-11T06:19:02;102664.25;;;13.53;64.72
28289;BME280;15558;50.874;6.964;2022-11-11T06:21:30;102666.56;;;13.56;64.38
28289;BME280;15558;50.874;6.964;2022-11-11T06:23:57;102672.19;;;13.56;64.78
28289;BME280;15558;50.874;6.964;2022-11-11T06:26:23;102673.34;;;13.60;64.36
28289;BME280;15558;50.874;6.964;2022-11-11T06:28:51;102680.66;;;13.56;64.66
28289;BME280;15558;50.874;6.964;2022-11-11T06:31:23;102688.56;;;13.54;64.71
28289;BME280;15558;50.874;6.964;2022-11-11T06:33:49;102681.75;;;13.50;65.04
28289;BME280;15558;50.874;6.964;2022-11-11T06:36:17;102679.59;;;13.62;64.82
28289;BME280;15558;50.874;6.964;2022-11-11T06:38:44;102693.13;;;13.60;64.87
28289;BME280;15558;50.874;6.964;2022-11-11T06:41:11;102694.78;;;13.61;64.72
28289;BME280;15558;50.874;6.964;2022-11-11T06:43:46;102699.34;;;13.62;64.79
28289;BME280;15558;50.874;6.964;2022-11-11T06:46:16;102701.59;;;13.65;64.40
28289;BME280;15558;50.874;6.964;2022-11-11T06:48:45;102709.72;;;13.56;64.51
28289;BME280;15558;50.874;6.964;2022-11-11T06:51:11;102699.84;;;13.59;64.69
28289;BME280;15558;50.874;6.964;2022-11-11T06:53:39;102708.31;;;13.59;64.67
28289;BME280;15558;50.874;6.964;2022-11-11T06:56:06;102704.91;;;13.57;64.64
28289;BME280;15558;50.874;6.964;2022-11-11T06:58:32;102705.44;;;13.49;64.88
28289;BME280;15558;50.874;6.964;2022-11-11T07:01:03;102718.16;;;13.51;64.71
28289;BME280;15558;50.874;6.964;2022-11-11T07:03:29;102715.59;;;13.50;64.42
28289;BME280;15558;50.874;6.964;2022-11-11T07:05:55;102716.72;;;13.49;64.78
28289;BME280;15558;50.874;6.964;2022-11-11T07:08:22;102707.91;;;13.40;64.88
28289;BME280;15558;50.874;6.964;2022-11-11T07:10:49;102712.97;;;13.38;65.10
28289;BME280;15558;50.874;6.964;2022-11-11T07:13:15;102709.88;;;13.40;65.32
28289;BME280;15558;50.874;6.964;2022-11-11T07:15:42;102708.22;;;13.44;64.77
28289;BME280;15558;50.874;6.964;2022-11-11T07:18:09;102707.81;;;13.62;64.46
28289;BME280;15558;50.874;6.964;2022-11-11T07:20:35;102704.84;;;13.47;64.92
28289;BME280;15558;50.874;6.964;2022-11-11T07:23:05;102715.59;;;13.50;65.11
28289;BME280;15558;50.874;6.964;2022-11-11T07:25:31;102724.59;;;13.47;65.48
28289;BME280;15558;50.874;6.964;2022-11-11T07:27:57;102713.38;;;13.57;65.02
28289;BME280;15558;50.874;6.964;2022-11-11T07:30:23;102720.50;;;13.64;64.93
28289;BME280;15558;50.874;6.964;2022-11-11T07:32:51;102724.81;;;13.76;64.88
28289;BME280;15558;50.874;6.964;2022-11-11T07:35:18;102723.69;;;13.77;64.70
28289;BME280;15558;50.874;6.964;2022-11-11T07:37:44;102721.50;;;13.89;64.27
28289;BME280;15558;50.874;6.964;2022-11-11T07:40:13;102721.19;;;13.86;64.20
28289;BME280;15558;50.874;6.964;2022-11-11T07:42:40;102720.34;;;13.85;64.43
28289;BME280;15558;50.874;6.964;2022-11-11T07:45:07;102721.75;;;13.83;64.57
28289;BME280;15558;50.874;6.964;2022-11-11T07:47:33;102723.25;;;13.95;64.40
28289;BME280;15558;50.874;6.964;2022-11-11T07:50:01;102719.25;;;13.91;64.18
28289;BME280;15558;50.874;6.964;2022-11-11T07:52:27;102727.94;;;13.80;64.61
28289;BME280;15558;50.874;6.964;2022-11-11T07:54:56;102733.34;;;13.86;64.44
28289;BME280;15558;50.874;6.964;2022-11-11T07:57:22;102729.13;;;13.89;64.88
28289;BME280;15558;50.874;6.964;2022-11-11T07:59:51;102740.13;;;13.90;64.81
28289;BME280;15558;50.874;6.964;2022-11-11T08:02:20;102741.78;;;13.81;65.25
28289;BME280;15558;50.874;6.964;2022-11-11T08:04:46;102745.25;;;13.93;64.60
28289;BME280;15558;50.874;6.964;2022-11-11T08:07:12;102758.81;;;13.96;64.75
28289;BME280;15558;50.874;6.964;2022-11-11T08:09:38;102761.06;;;13.94;64.45
28289;BME280;15558;50.874;6.964;2022-11-11T08:12:04;102756.81;;;13.92;64.91
28289;BME280;15558;50.874;6.964;2022-11-11T08:14:49;102769.09;;;14.07;64.30
28289;BME280;15558;50.874;6.964;2022-11-11T08:17:15;102762.19;;;13.93;64.99
28289;BME280;15558;50.874;6.964;2022-11-11T08:19:41;102761.59;;;13.86;64.80
28289;BME280;15558;50.874;6.964;2022-11-11T08:22:10;102762.81;;;14.00;64.37
28289;BME280;15558;50.874;6.964;2022-11-11T08:24:36;102769.38;;;14.10;64.50
28289;BME280;15558;50.874;6.964;2022-11-11T08:27:02;102769.69;;;14.14;63.98
28289;BME280;15558;50.874;6.964;2022-11-11T08:29:31;102775.34;;;14.14;63.89
28289;BME280;15558;50.874;6.964;2022-11-11T08:32:02;102767.19;;;14.27;63.87
28289;BME280;15558;50.874;6.964;2022-11-11T08:34:29;102766.34;;;14.22;63.97
28289;BME280;15558;50.874;6.964;2022-11-11T08:37:04;102767.44;;;14.21;64.06
28289;BME280;15558;50.874;6.964;2022-11-11T08:39:30;102768.16;;;14.47;63.76
28289;BME280;15558;50.874;6.964;2022-11-11T08:41:56;102764.25;;;14.63;63.22
28289;BME280;15558;50.874;6.964;2022-11-11T08:44:22;102750.16;;;14.83;62.46
28289;BME280;15558;50.874;6.964;2022-11-11T08:46:48;102758.09;;;14.91;62.02
28289;BME280;15558;50.874;6.964;2022-11-11T08:49:14;102768.06;;;15.13;61.63
28289;BME280;15558;50.874;6.964;2022-11-11T08:51:40;102764.41;;;15.12;61.31
28289;BME280;15558;50.874;6.964;2022-11-11T08:54:06;102769.50;;;15.25;61.58
28289;BME280;15558;50.874;6.964;2022-11-11T08:56:32;102774.63;;;15.33;61.26
28289;BME280;15558;50.874;6.964;2022-11-11T08:58:58;102765.25;;;15.33;61.40
28289;BME280;15558;50.874;6.964;2022-11-11T09:01:24;102766.09;;;15.53;60.86
28289;BME280;15558;50.874;6.964;2022-11-11T09:03:50;102770.63;;;15.49;60.73
28289;BME280;15558;50.874;6.964;2022-11-11T09:06:16;102765.25;;;15.43;60.95
28289;BME280;15558;50.874;6.964;2022-11-11T09:08:43;102762.72;;;15.61;61.05
28289;BME280;15558;50.874;6.964;2022-11-11T09:11:16;102765.84;;;15.54;60.97
28289;BME280;15558;50.874;6.964;2022-11-11T09:13:42;102762.16;;;15.59;60.93
28289;BME280;15558;50.874;6.964;2022-11-11T09:16:08;102765.53;;;15.51;60.84
28289;BME280;15558;50.874;6.964;2022-11-11T09:18:34;102768.38;;;15.46;61.19
28289;BME280;15558;50.874;6.964;2022-11-11T09:21:01;102769.53;;;15.35;62.01
28289;BME280;15558;50.874;6.964;2022-11-11T09:23:30;102758.19;;;15.55;61.30
28289;BME280;15558;50.874;6.964;2022-11-11T09:25:58;102772.91;;;15.52;61.66
28289;BME280;15558;50.874;6.964;2022-11-11T09:28:24;102768.94;;;15.48;61.81
28289;BME280;15558;50.874;6.964;2022-11-11T09:30:53;102768.94;;;15.63;61.48
28289;BME280;15558;50.874;6.964;2022-11-11T09:33:19;102765.53;;;15.76;61.44
28289;BME280;15558;50.874;6.964;2022-11-11T09:35:45;102771.72;;;15.92;60.83
28289;BME280;15558;50.874;6.964;2022-11-11T09:38:11;102771.13;;;16.05;60.58
28289;BME280;15558;50.874;6.964;2022-11-11T09:40:54;102780.19;;;16.07;59.98
28289;BME280;15558;50.874;6.964;2022-11-11T09:51:29;102775.69;;;16.16;60.21
28289;BME280;15558;50.874;6.964;2022-11-11T09:54:00;102774.25;;;16.09;60.58
28289;BME280;15558;50.874;6.964;2022-11-11T09:56:28;102778.22;;;16.22;60.47
28289;BME280;15558;50.874;6.964;2022-11-11T09:59:23;102764.88;;;16.23;59.92
28289;BME280;15558;50.874;6.964;2022-11-11T10:01:54;102777.88;;;16.39;59.61
28289;BME280;15558;50.874;6.964;2022-11-11T10:04:36;102766.47;;;16.53;59.37
28289;BME280;15558;50.874;6.964;2022-11-11T10:07:12;102773.00;;;16.49;59.30
28289;BME280;15558;50.874;6.964;2022-11-11T10:09:44;102767.88;;;16.56;59.33
28289;BME280;15558;50.874;6.964;2022-11-11T10:12:14;102768.72;;;16.61;59.07
28289;BME280;15558;50.874;6.964;2022-11-11T10:14:42;102765.88;;;16.61;59.03
28289;BME280;15558;50.874;6.964;2022-11-11T10:22:35;102760.69;;;16.73;58.23
28289;BME280;15558;50.874;6.964;2022-11-11T10:25:06;102747.56;;;16.87;58.00
28289;BME280;15558;50.874;6.964;2022-11-11T10:27:33;102757.00;;;16.73;58.58
28289;BME280;15558;50.874;6.964;2022-11-11T10:30:06;102755.19;;;16.91;58.46
28289;BME280;15558;50.874;6.964;2022-11-11T10:32:39;102752.00;;;17.03;58.07
28289;BME280;15558;50.874;6.964;2022-11-11T10:35:20;102750.34;;;16.92;57.99
28289;BME280;15558;50.874;6.964;2022-11-11T10:37:55;102750.22;;;17.12;57.37
28289;BME280;15558;50.874;6.964;2022-11-11T10:40:24;102755.91;;;17.12;57.95
28289;BME280;15558;50.874;6.964;2022-11-11T10:42:52;102751.00;;;17.27;57.95
28289;BME280;15558;50.874;6.964;2022-11-11T10:45:34;102745.03;;;17.28;57.64
28289;BME280;15558;50.874;6.964;2022-11-11T10:48:12;102749.97;;;17.46;57.17
28289;BME280;15558;50.874;6.964;2022-11-11T10:50:44;102754.66;;;17.32;57.51
28289;BME280;15558;50.874;6.964;2022-11-11T10:53:19;102751.00;;;17.60;56.53
28289;BME280;15558;50.874;6.964;2022-11-11T10:55:55;102746.97;;;17.66;56.77
28289;BME280;15558;50.874;6.964;2022-11-11T11:00:59;102754.28;;;17.72;55.78
28289;BME280;15558;50.874;6.964;2022-11-11T11:03:33;102749.06;;;17.84;55.25
28289;BME280;15558;50.874;6.964;2022-11-11T11:08:56;102742.28;;;17.80;54.45
28289;BME280;15558;50.874;6.964;2022-11-11T11:11:35;102756.19;;;18.09;53.20
28289;BME280;15558;50.874;6.964;2022-11-11T11:14:25;102745.13;;;18.08;53.42
28289;BME280;15558;50.874;6.964;2022-11-11T11:16:58;102741.28;;;17.94;53.46
28289;BME280;15558;50.874;6.964;2022-11-11T11:19:26;102741.03;;;17.91;53.69
28289;BME280;15558;50.874;6.964;2022-11-11T11:21:57;102745.81;;;18.23;52.51
28289;BME280;15558;50.874;6.964;2022-11-11T11:24:27;102740.97;;;18.24;52.65
28289;BME280;15558;50.874;6.964;2022-11-11T11:26:55;102742.59;;;18.06;52.92
28289;BME280;15558;50.874;6.964;2022-11-11T11:29:27;102734.13;;;18.25;52.91
28289;BME280;15558;50.874;6.964;2022-11-11T11:31:55;102721.50;;;18.35;52.41
28289;BME280;15558;50.874;6.964;2022-11-11T11:34:59;102722.34;;;18.36;52.42
28289;BME280;15558;50.874;6.964;2022-11-11T11:37:25;102729.44;;;18.57;52.58
28289;BME280;15558;50.874;6.964;2022-11-11T11:40:04;102725.22;;;18.72;52.78
28289;BME280;15558;50.874;6.964;2022-11-11T11:42:35;102721.41;;;18.82;51.65
28289;BME280;15558;50.874;6.964;2022-11-11T11:47:50;102721.47;;;18.59;52.19
28289;BME280;15558;50.874;6.964;2022-11-11T11:52:59;102725.56;;;18.89;52.34
28289;BME280;15558;50.874;6.964;2022-11-11T11:58:19;102713.59;;;19.10;51.43
28289;BME280;15558;50.874;6.964;2022-11-11T12:03:48;102709.63;;;18.88;51.48
28289;BME280;15558;50.874;6.964;2022-11-11T12:06:33;102706.72;;;18.93;50.38
28289;BME280;15558;50.874;6.964;2022-11-11T12:11:57;102708.06;;;19.00;50.35
28289;BME280;15558;50.874;6.964;2022-11-11T12:17:32;102701.44;;;19.05;50.41
28289;BME280;15558;50.874;6.964;2022-11-11T12:22:40;102697.94;;;19.26;50.02
28289;BME280;15558;50.874;6.964;2022-11-11T12:25:27;102696.81;;;19.09;50.25
28289;BME280;15558;50.874;6.964;2022-11-11T12:27:59;102697.97;;;19.08;50.33
28289;BME280;15558;50.874;6.964;2022-11-11T12:30:26;102695.03;;;19.13;50.50
28289;BME280;15558;50.874;6.964;2022-11-11T12:36:17;102682.56;;;18.91;51.37
28289;BME280;15558;50.874;6.964;2022-11-11T12:41:59;102669.56;;;19.03;50.72
28289;BME280;15558;50.874;6.964;2022-11-11T12:44:40;102664.41;;;19.05;51.30
28289;BME280;15558;50.874;6.964;2022-11-11T12:50:22;102664.50;;;19.18;50.94
28289;BME280;15558;50.874;6.964;2022-11-11T12:53:09;102672.00;;;19.28;50.63
28289;BME280;15558;50.874;6.964;2022-11-11T12:55:46;102672.66;;;19.38;48.80
28289;BME280;15558;50.874;6.964;2022-11-11T13:11:58;102662.84;;;19.31;50.36
28289;BME280;15558;50.874;6.964;2022-11-11T13:14:36;102662.84;;;19.31;49.29
28289;BME280;15558;50.874;6.964;2022-11-11T13:17:10;102664.97;;;19.38;48.57
28289;BME280;15558;50.874;6.964;2022-11-11T13:19:44;102661.06;;;19.34;48.29
28289;BME280;15558;50.874;6.964;2022-11-11T13:22:21;102668.44;;;19.35;48.71
28289;BME280;15558;50.874;6.964;2022-11-11T13:24:51;102669.84;;;19.20;48.17
28289;BME280;15558;50.874;6.964;2022-11-11T13:27:25;102666.72;;;19.21;48.32
28289;BME280;15558;50.874;6.964;2022-11-11T13:30:10;102659.38;;;19.33;47.32
28289;BME280;15558;50.874;6.964;2022-11-11T13:32:44;102660.00;;;19.31;47.82
28289;BME280;15558;50.874;6.964;2022-11-11T13:35:20;102651.69;;;19.16;47.74
28289;BME280;15558;50.874;6.964;2022-11-11T13:37:47;102647.81;;;19.12;47.82
28289;BME280;15558;50.874;6.964;2022-11-11T13:40:31;102646.91;;;18.98;48.22
28289;BME280;15558;50.874;6.964;2022-11-11T13:42:59;102650.66;;;19.12;47.95
28289;BME280;15558;50.874;6.964;2022-11-11T13:45:28;102657.75;;;18.96;48.65
28289;BME280;15558;50.874;6.964;2022-11-11T13:47:56;102656.81;;;19.00;48.70
28289;BME280;15558;50.874;6.964;2022-11-11T13:50:26;102653.25;;;18.72;49.21
28289;BME280;15558;50.874;6.964;2022-11-11T13:53:05;102644.81;;;18.85;48.89
28289;BME280;15558;50.874;6.964;2022-11-11T13:55:37;102640.50;;;19.06;48.36
28289;BME280;15558;50.874;6.964;2022-11-11T13:58:05;102645.56;;;18.91;48.82
28289;BME280;15558;50.874;6.964;2022-11-11T14:00:36;102627.41;;;19.05;48.78
28289;BME280;15558;50.874;6.964;2022-11-11T14:05:37;102628.44;;;18.96;49.34
28289;BME280;15558;50.874;6.964;2022-11-11T14:08:06;102632.78;;;18.88;49.45
28289;BME280;15558;50.874;6.964;2022-11-11T14:15:49;102639.34;;;18.70;49.73
28289;BME280;15558;50.874;6.964;2022-11-11T14:20:53;102634.84;;;18.83;49.40
28289;BME280;15558;50.874;6.964;2022-11-11T14:28:53;102636.66;;;18.79;48.54
28289;BME280;15558;50.874;6.964;2022-11-11T14:33:52;102635.63;;;18.70;49.24
28289;BME280;15558;50.874;6.964;2022-11-11T14:41:53;102636.56;;;18.84;50.17
28289;BME280;15558;50.874;6.964;2022-11-11T14:49:52;102645.56;;;18.91;51.67
28289;BME280;15558;50.874;6.964;2022-11-11T14:57:32;102638.78;;;18.87;52.70
28289;BME280;15558;50.874;6.964;2022-11-11T15:00:02;102643.63;;;18.86;52.66
28289;BME280;15558;50.874;6.964;2022-11-11T15:02:35;102642.03;;;18.80;53.01